19 | 06 | 2021

Daten Vortag

Klimadaten von 10m Höhe gemessen, Station  

Datum / Zeit Intervall min Luftfeuchte % Temperatur °C Absoluter Luftdruck hPa Wind m/s Windböhen m/s Wind Richtung Relative Luftdruck hPa Taupunkt °C Windchill °C Niederschlag mm
19-06-2021 00:18 5 84 17.9 1011.1 0.0 0.0 W 1012.8 15.2 17.9 0.0
19-06-2021 00:23 5 84 17.7 1011.1 0.0 0.0 W 1012.8 15.0 17.7 0.0
19-06-2021 00:28 5 85 17.7 1011.2 0.0 0.0 W 1012.9 15.2 17.7 0.0
19-06-2021 00:33 5 86 17.7 1010.9 0.0 0.0 W 1012.6 15.3 17.7 0.0
19-06-2021 00:38 5 86 17.7 1011.2 0.0 0.0 W 1012.9 15.3 17.7 0.0
19-06-2021 00:43 5 87 17.7 1011.2 0.0 0.0 W 1012.9 15.5 17.7 0.0
19-06-2021 00:48 5 87 17.7 1011.0 0.0 0.0 W 1012.7 15.5 17.7 0.0
19-06-2021 00:53 5 87 17.7 1011.1 0.0 0.0 NE 1012.8 15.5 17.7 0.0
19-06-2021 00:58 5 86 17.6 1011.2 0.0 0.0 W 1012.9 15.3 17.6 0.0
19-06-2021 01:03 5 90 17.4 1011.0 0.0 0.0 W 1012.7 15.8 17.4 0.0
19-06-2021 01:08 5 90 17.4 1011.3 0.0 0.0 W 1013.0 15.8 17.4 0.0
19-06-2021 01:13 5 90 17.3 1011.2 0.0 0.0 W 1012.9 15.7 17.3 0.0
19-06-2021 01:18 5 90 17.3 1011.2 0.0 0.0 NW 1012.9 15.7 17.3 0.0
19-06-2021 01:23 5 91 17.3 1011.1 0.0 0.0 W 1012.8 15.8 17.3 0.0
19-06-2021 01:28 5 91 17.2 1010.9 0.0 0.0 W 1012.6 15.7 17.2 0.0
19-06-2021 01:33 5 91 17.1 1011.1 0.0 0.0 W 1012.8 15.6 17.1 0.0
19-06-2021 01:38 5 91 17.3 1011.1 0.0 0.0 SE 1012.8 15.8 17.3 0.0
19-06-2021 01:43 5 91 17.4 1011.2 1.1 2.5 W 1012.9 15.9 17.4 0.0
19-06-2021 01:48 5 90 17.3 1011.3 0.0 0.0 W 1013.0 15.7 17.3 0.0
19-06-2021 01:53 5 90 17.2 1011.2 0.0 0.0 W 1012.9 15.6 17.2 0.0
19-06-2021 01:58 5 90 17.0 1011.1 0.0 0.0 W 1012.8 15.4 17.0 0.0
19-06-2021 02:03 5 90 17.0 1011.2 0.0 0.0 W 1012.9 15.4 17.0 0.0
19-06-2021 02:08 5 90 16.9 1011.3 0.0 0.0 W 1013.0 15.3 16.9 0.0
19-06-2021 02:13 5 91 16.8 1011.2 0.0 0.0 W 1012.9 15.3 16.8 0.0
19-06-2021 02:18 5 91 16.7 1011.0 0.0 0.0 W 1012.7 15.2 16.7 0.0
19-06-2021 02:23 5 91 16.7 1011.0 0.0 0.0 W 1012.7 15.2 16.7 0.0
19-06-2021 02:28 5 91 16.6 1010.8 0.0 0.0 W 1012.5 15.1 16.6 0.0
19-06-2021 02:33 5 92 16.6 1010.9 0.0 0.0 SE 1012.6 15.3 16.6 0.0
19-06-2021 02:38 5 92 16.6 1010.9 0.0 0.0 SE 1012.6 15.3 16.6 0.0
19-06-2021 02:43 5 92 16.5 1011.1 0.0 0.0 SE 1012.8 15.2 16.5 0.0
19-06-2021 02:48 5 92 16.5 1010.9 0.0 0.0 W 1012.6 15.2 16.5 0.0
19-06-2021 02:53 5 92 16.5 1010.9 0.0 0.0 W 1012.6 15.2 16.5 0.0
19-06-2021 02:58 5 92 16.5 1010.9 0.0 0.0 SW 1012.6 15.2 16.5 0.0
19-06-2021 03:03 5 92 16.4 1010.9 0.0 0.0 SW 1012.6 15.1 16.4 0.0
19-06-2021 03:08 5 92 16.2 1010.9 0.0 0.0 SW 1012.6 14.9 16.2 0.0
19-06-2021 03:13 5 92 16.1 1010.8 0.0 0.0 SW 1012.5 14.8 16.1 0.0
19-06-2021 03:18 5 92 16.0 1010.8 0.0 0.0 SW 1012.5 14.7 16.0 0.0
19-06-2021 03:23 5 92 16.0 1010.5 0.0 0.0 SW 1012.2 14.7 16.0 0.0
19-06-2021 03:28 5 92 16.0 1010.5 0.0 0.0 SW 1012.2 14.7 16.0 0.0
19-06-2021 03:33 5 92 15.9 1010.7 0.0 0.0 SW 1012.4 14.6 15.9 0.0
19-06-2021 03:38 5 93 16.0 1010.6 0.0 0.0 NW 1012.3 14.9 16.0 0.0
19-06-2021 03:43 5 93 16.0 1010.5 0.0 0.0 NW 1012.2 14.9 16.0 0.0
19-06-2021 03:48 5 93 16.0 1010.6 0.0 0.0 NW 1012.3 14.9 16.0 0.0
19-06-2021 03:53 5 93 15.9 1010.3 0.0 0.0 NW 1012.0 14.8 15.9 0.0
19-06-2021 03:58 5 93 15.9 1010.6 0.0 0.0 NW 1012.3 14.8 15.9 0.0
19-06-2021 04:03 5 93 15.9 1010.7 0.0 0.0 NW 1012.4 14.8 15.9 0.0
19-06-2021 04:08 5 93 16.0 1010.7 0.0 0.0 E 1012.4 14.9 16.0 0.0
19-06-2021 04:13 5 94 16.0 1010.4 0.0 0.0 E 1012.1 15.1 16.0 0.0
19-06-2021 04:18 5 94 16.0 1010.3 0.0 0.0 E 1012.0 15.1 16.0 0.0
19-06-2021 04:23 5 93 15.9 1010.5 0.0 0.0 W 1012.2 14.8 15.9 0.0
19-06-2021 04:28 5 93 15.7 1010.6 0.0 0.0 W 1012.3 14.6 15.7 0.0
19-06-2021 04:33 5 93 15.7 1010.7 0.0 0.0 W 1012.4 14.6 15.7 0.0
19-06-2021 04:38 5 93 15.6 1010.7 0.0 1.1 W 1012.4 14.5 15.6 0.0
19-06-2021 04:43 5 93 15.5 1010.8 0.0 0.0 SW 1012.5 14.4 15.5 0.0
19-06-2021 04:48 5 92 15.3 1010.8 0.0 0.0 NW 1012.5 14.0 15.3 0.0
19-06-2021 04:53 5 93 15.3 1010.7 0.0 0.0 NW 1012.4 14.2 15.3 0.0
19-06-2021 04:58 5 93 15.3 1010.6 0.0 0.0 NW 1012.3 14.2 15.3 0.0
19-06-2021 05:03 5 93 15.5 1010.7 0.0 0.0 NW 1012.4 14.4 15.5 0.0
19-06-2021 05:08 5 93 15.5 1010.7 0.0 0.0 NW 1012.4 14.4 15.5 0.0
19-06-2021 05:13 5 94 15.6 1010.5 0.0 0.0 NW 1012.2 14.7 15.6 0.0
19-06-2021 05:18 5 94 15.7 1010.5 0.0 0.0 E 1012.2 14.8 15.7 0.0
19-06-2021 05:23 5 94 15.9 1011.0 0.0 0.0 E 1012.7 15.0 15.9 0.0
19-06-2021 05:28 5 94 15.9 1010.7 0.0 0.0 E 1012.4 15.0 15.9 0.0
19-06-2021 05:33 5 95 16.1 1010.5 0.0 0.0 E 1012.2 15.3 16.1 0.0
19-06-2021 05:38 5 95 16.3 1010.7 0.0 0.0 E 1012.4 15.5 16.3 0.0
19-06-2021 05:43 5 94 16.5 1010.5 0.0 0.0 E 1012.2 15.6 16.5 0.0
19-06-2021 05:48 5 94 16.6 1010.5 0.0 0.0 NW 1012.2 15.7 16.6 0.0
19-06-2021 05:53 5 94 16.8 1010.5 0.0 0.0 NW 1012.2 15.8 16.8 0.0
19-06-2021 05:58 5 93 17.0 1010.6 0.0 0.0 NW 1012.3 15.9 17.0 0.0
19-06-2021 06:03 5 93 17.1 1010.7 0.0 0.0 NW 1012.4 16.0 17.1 0.0
19-06-2021 06:08 5 90 17.5 1010.6 0.0 0.0 NW 1012.3 15.9 17.5 0.0
19-06-2021 06:13 5 90 17.8 1010.5 0.0 0.0 NW 1012.2 16.2 17.8 0.0
19-06-2021 06:18 5 90 18.4 1010.7 0.0 0.0 SW 1012.4 16.8 18.4 0.0
19-06-2021 06:23 5 88 19.0 1010.6 0.0 0.0 SW 1012.3 17.0 19.0 0.0
19-06-2021 06:28 5 85 19.5 1010.5 0.0 1.1 W 1012.2 16.9 19.5 0.0
19-06-2021 06:33 5 84 20.0 1010.6 0.0 1.1 W 1012.3 17.2 20.0 0.0
19-06-2021 06:38 5 82 20.3 1010.5 0.0 1.1 S 1012.2 17.2 20.3 0.0
19-06-2021 06:43 5 81 20.4 1010.9 2.5 3.6 SW 1012.6 17.1 20.4 0.0
19-06-2021 06:48 5 80 20.6 1010.9 0.0 1.1 E 1012.6 17.1 20.6 0.0
19-06-2021 06:53 5 79 20.8 1010.8 0.0 0.0 S 1012.5 17.0 20.8 0.0
19-06-2021 06:58 5 78 21.3 1010.7 0.0 0.0 W 1012.4 17.3 21.3 0.0
19-06-2021 07:03 5 76 21.4 1010.8 0.0 0.0 NW 1012.5 17.0 21.4 0.0
19-06-2021 07:08 5 78 21.5 1011.0 0.0 0.0 N 1012.7 17.5 21.5 0.0
19-06-2021 07:13 5 76 22.1 1010.8 0.0 0.0 E 1012.5 17.7 22.1 0.0
19-06-2021 07:18 5 73 23.1 1011.0 0.0 0.0 E 1012.7 18.0 23.1 0.0
19-06-2021 07:23 5 70 24.4 1010.6 0.0 0.0 SE 1012.3 18.6 24.4 0.0
19-06-2021 07:28 5 64 25.1 1010.7 0.0 1.1 SE 1012.4 17.8 25.1 0.0
19-06-2021 07:33 5 61 25.3 1011.0 1.1 2.5 SW 1012.7 17.3 25.3 0.0
19-06-2021 07:38 5 61 25.5 1010.9 1.1 2.5 SE 1012.6 17.5 25.5 0.0
19-06-2021 07:43 5 62 26.0 1010.8 2.5 3.6 NEE 1012.5 18.2 26.0 0.0
19-06-2021 07:48 5 61 26.1 1010.6 1.1 2.5 E 1012.3 18.0 26.1 0.0
19-06-2021 07:53 5 61 25.8 1010.4 2.5 3.6 SE 1012.1 17.7 25.8 0.0
19-06-2021 07:58 5 62 25.9 1010.6 1.1 2.5 SE 1012.3 18.1 25.9 0.0
19-06-2021 08:03 5 62 26.2 1010.8 1.1 2.5 SE 1012.5 18.4 26.2 0.0
19-06-2021 08:08 5 59 27.2 1010.7 0.0 1.1 SE 1012.4 18.5 27.2 0.0
19-06-2021 08:13 5 54 27.5 1010.7 1.1 2.5 E 1012.4 17.4 27.5 0.0
19-06-2021 08:18 5 55 27.9 1010.8 0.0 1.1 SSW 1012.5 18.1 27.9 0.0
19-06-2021 08:23 5 57 27.4 1011.0 2.5 3.6 SW 1012.7 18.2 27.4 0.0
19-06-2021 08:28 5 57 27.3 1011.1 3.6 6.1 SE 1012.8 18.1 27.3 0.0
19-06-2021 08:33 5 54 27.4 1010.9 6.1 8.6 S 1012.6 17.3 27.4 0.0
19-06-2021 08:38 5 55 27.4 1011.2 6.1 7.2 SE 1012.9 17.6 27.4 0.0
19-06-2021 08:43 5 50 27.6 1011.1 2.5 5.0 SW 1012.8 16.3 27.6 0.0
19-06-2021 08:48 5 50 27.8 1011.3 5.0 7.2 W 1013.0 16.5 27.8 0.0
19-06-2021 08:53 5 50 28.0 1011.2 5.0 6.1 SW 1012.9 16.6 28.0 0.0
19-06-2021 08:58 5 49 27.9 1011.3 6.1 8.6 SSE 1013.0 16.2 27.9 0.0
19-06-2021 09:03 5 50 28.3 1011.0 5.0 7.2 SE 1012.7 16.9 28.3 0.0
19-06-2021 09:08 5 50 28.5 1011.2 5.0 6.1 SE 1012.9 17.1 28.5 0.0
19-06-2021 09:13 5 50 28.7 1011.0 2.5 3.6 NWW 1012.7 17.3 28.7 0.0
19-06-2021 09:18 5 51 29.3 1011.4 2.5 3.6 W 1013.1 18.2 29.3 0.0
19-06-2021 09:23 5 50 29.5 1010.9 5.0 6.1 S 1012.6 18.0 29.5 0.0
19-06-2021 09:28 5 49 29.5 1011.1 3.6 5.0 S 1012.8 17.7 29.5 0.0
19-06-2021 09:33 5 49 29.7 1011.4 3.6 7.2 S 1013.1 17.9 29.7 0.0
19-06-2021 09:38 5 50 29.4 1011.4 6.1 7.2 SW 1013.1 17.9 29.4 0.0
19-06-2021 09:43 5 51 29.9 1011.4 5.0 7.2 S 1013.1 18.7 29.9 0.0
19-06-2021 09:48 5 52 30.3 1011.5 2.5 3.6 SE 1013.2 19.4 30.3 0.0
19-06-2021 09:53 5 51 30.6 1011.2 2.5 5.0 S 1012.9 19.3 30.6 0.0
19-06-2021 09:58 5 51 30.6 1011.4 1.1 2.5 SW 1013.1 19.3 30.6 0.0
19-06-2021 10:03 5 52 30.6 1011.4 2.5 3.6 S 1013.1 19.7 30.6 0.0
19-06-2021 10:08 5 53 31.4 1011.3 2.5 3.6 SW 1013.0 20.7 31.4 0.0
19-06-2021 10:13 5 51 31.6 1011.4 1.1 2.5 S 1013.1 20.3 31.6 0.0
19-06-2021 10:18 5 50 31.8 1011.4 6.1 8.6 NW 1013.1 20.1 31.8 0.0
19-06-2021 10:23 5 50 31.8 1011.6 2.5 5.0 NW 1013.3 20.1 31.8 0.0
19-06-2021 10:28 5 50 31.7 1011.7 3.6 5.0 S 1013.4 20.0 31.7 0.0
19-06-2021 10:33 5 50 31.7 1011.5 2.5 5.0 S 1013.2 20.0 31.7 0.0
19-06-2021 10:38 5 51 31.3 1011.6 3.6 6.1 W 1013.3 20.0 31.3 0.0
19-06-2021 10:43 5 51 31.5 1011.8 2.5 5.0 W 1013.5 20.2 31.5 0.0
19-06-2021 10:48 5 51 31.3 1011.7 3.6 6.1 W 1013.4 20.0 31.3 0.0
19-06-2021 10:53 5 51 31.4 1011.6 3.6 5.0 SE 1013.3 20.1 31.4 0.0
19-06-2021 10:58 5 51 31.6 1011.6 1.1 2.5 SSW 1013.3 20.3 31.6 0.0
19-06-2021 11:03 5 51 31.9 1011.4 3.6 5.0 W 1013.1 20.5 31.9 0.0
19-06-2021 11:08 5 52 32.2 1011.7 1.1 2.5 SW 1013.4 21.1 32.2 0.0
19-06-2021 11:13 5 50 32.4 1011.5 2.5 5.0 NW 1013.2 20.7 32.4 0.0
19-06-2021 11:18 5 50 32.2 1011.8 6.1 7.2 SSW 1013.5 20.5 32.2 0.0
19-06-2021 11:23 5 51 32.3 1011.6 2.5 3.6 W 1013.3 20.9 32.3 0.0
19-06-2021 11:28 5 45 32.2 1011.5 1.1 3.6 W 1013.2 18.8 32.2 0.0
19-06-2021 11:33 5 51 32.3 1011.7 1.1 2.5 N 1013.4 20.9 32.3 0.0
19-06-2021 11:38 5 44 32.6 1011.9 2.5 6.1 SW 1013.6 18.8 32.6 0.0
19-06-2021 11:43 5 46 32.4 1011.7 2.5 3.6 W 1013.4 19.3 32.4 0.0
19-06-2021 11:48 5 46 32.4 1011.6 7.2 9.7 SW 1013.3 19.3 32.4 0.0
19-06-2021 11:53 5 47 32.0 1011.8 5.0 7.2 W 1013.5 19.3 32.0 0.0
19-06-2021 11:58 5 49 32.3 1011.9 6.1 8.6 W 1013.6 20.3 32.3 0.0
19-06-2021 12:03 5 49 32.4 1011.8 2.5 5.0 E 1013.5 20.4 32.4 0.0
19-06-2021 12:08 5 44 32.7 1011.8 6.1 7.2 SW 1013.5 18.9 32.7 0.0
19-06-2021 12:13 5 46 32.5 1011.9 2.5 3.6 SWW 1013.6 19.4 32.5 0.0
19-06-2021 12:18 5 44 32.8 1011.8 2.5 5.0 SW 1013.5 19.0 32.8 0.0
19-06-2021 12:23 5 50 32.4 1011.7 3.6 7.2 NW 1013.4 20.7 32.4 0.0
19-06-2021 12:28 5 46 32.6 1011.8 5.0 7.2 S 1013.5 19.5 32.6 0.0
19-06-2021 12:33 5 46 32.7 1011.7 2.5 5.0 W 1013.4 19.6 32.7 0.0
19-06-2021 12:38 5 46 32.7 1011.8 7.2 11.2 W 1013.5 19.6 32.7 0.0
19-06-2021 12:43 5 50 32.3 1011.9 6.1 8.6 W 1013.6 20.6 32.3 0.0
19-06-2021 12:49 5 50 32.2 1011.7 5.0 8.6 NW 1013.4 20.5 32.2 0.0
19-06-2021 12:54 5 50 32.4 1011.9 6.1 8.6 NW 1013.6 20.7 32.4 0.0
19-06-2021 12:59 5 48 32.6 1011.8 6.1 7.2 NW 1013.5 20.2 32.6 0.0
19-06-2021 13:04 5 48 32.8 1011.9 2.5 6.1 S 1013.6 20.4 32.8 0.0
19-06-2021 13:09 5 44 33.4 1011.8 3.6 6.1 SWW 1013.5 19.5 33.4 0.0
19-06-2021 13:14 5 44 32.7 1012.0 8.6 13.3 W 1013.7 18.9 32.7 0.0
19-06-2021 13:19 5 50 32.2 1011.8 1.1 3.6 S 1013.5 20.5 32.2 0.0
19-06-2021 13:24 5 50 32.2 1011.7 2.5 3.6 N 1013.4 20.5 32.2 0.0
19-06-2021 13:29 5 50 32.1 1011.7 1.1 2.5 W 1013.4 20.4 32.1 0.0
19-06-2021 13:34 5 50 32.0 1011.6 1.1 2.5 SW 1013.3 20.3 32.0 0.0
19-06-2021 13:39 5 51 32.2 1011.7 3.6 6.1 W 1013.4 20.8 32.2 0.0
19-06-2021 13:44 5 50 32.4 1011.6 6.1 8.6 W 1013.3 20.7 32.4 0.0
19-06-2021 13:49 5 45 32.7 1011.7 3.6 5.0 SWW 1013.4 19.3 32.7 0.0
19-06-2021 13:54 5 50 32.1 1011.5 1.1 2.5 N 1013.2 20.4 32.1 0.0
19-06-2021 13:59 5 49 31.9 1011.5 2.5 3.6 SW 1013.2 19.9 31.9 0.0
19-06-2021 14:04 5 50 32.0 1011.6 3.6 5.0 S 1013.3 20.3 32.0 0.0
19-06-2021 14:09 5 50 31.5 1011.6 2.5 3.6 W 1013.3 19.9 31.5 0.0
19-06-2021 14:14 5 50 32.0 1011.6 3.6 6.1 SWW 1013.3 20.3 32.0 0.0
19-06-2021 14:19 5 49 32.3 1011.5 5.0 8.6 NW 1013.2 20.3 32.3 0.0
19-06-2021 14:24 5 44 32.5 1011.5 2.5 5.0 SWW 1013.2 18.7 32.5 0.0
19-06-2021 14:29 5 44 33.1 1011.9 5.0 7.2 NW 1013.6 19.3 33.1 0.0
19-06-2021 14:34 5 43 33.1 1011.6 6.1 11.2 W 1013.3 18.9 33.1 0.0
19-06-2021 14:39 5 48 32.4 1011.5 5.0 8.6 W 1013.2 20.0 32.4 0.0
19-06-2021 14:44 5 51 31.8 1011.4 1.1 2.5 S 1013.1 20.4 31.8 0.0
19-06-2021 14:49 5 49 31.4 1011.6 5.0 6.1 W 1013.3 19.4 31.4 0.0
19-06-2021 14:54 5 51 31.0 1011.8 7.2 9.7 W 1013.5 19.7 30.9 0.0
19-06-2021 14:59 5 55 30.3 1011.7 5.0 8.6 SWW 1013.4 20.3 30.3 0.0
19-06-2021 15:04 5 57 30.4 1011.8 6.1 11.2 S 1013.5 21.0 30.4 0.0
19-06-2021 15:09 5 54 31.2 1011.7 3.6 6.1 W 1013.4 20.8 31.2 0.0
19-06-2021 15:14 5 54 30.9 1012.0 3.6 5.0 SW 1013.7 20.5 30.9 0.0
19-06-2021 15:19 5 53 31.0 1011.8 3.6 7.2 NNW 1013.5 20.3 31.0 0.0
19-06-2021 15:24 5 53 31.2 1011.7 2.5 5.0 NE 1013.4 20.5 31.2 0.0
19-06-2021 15:29 5 52 31.9 1011.7 2.5 5.0 W 1013.4 20.9 31.9 0.0
19-06-2021 15:34 5 51 31.9 1011.6 5.0 9.7 N 1013.3 20.5 31.9 0.0
19-06-2021 15:39 5 48 32.4 1011.7 3.6 6.1 W 1013.4 20.0 32.4 0.0
19-06-2021 15:44 5 45 32.6 1011.6 3.6 7.2 S 1013.3 19.2 32.6 0.0
19-06-2021 15:49 5 45 32.5 1011.8 5.0 7.2 W 1013.5 19.1 32.5 0.0
19-06-2021 15:54 5 49 32.4 1011.6 3.6 6.1 SW 1013.3 20.4 32.4 0.0
19-06-2021 15:59 5 43 32.9 1011.5 3.6 6.1 W 1013.2 18.7 32.9 0.0
19-06-2021 16:04 5 41 33.0 1011.6 5.0 8.6 NW 1013.3 18.0 33.0 0.0
19-06-2021 16:09 5 44 32.8 1011.7 7.2 11.2 N 1013.4 19.0 32.8 0.0
19-06-2021 16:14 5 47 32.5 1011.6 2.5 3.6 SW 1013.3 19.8 32.5 0.0
19-06-2021 16:19 5 51 31.9 1011.8 6.1 13.3 NW 1013.5 20.5 31.9 0.0
19-06-2021 16:24 5 51 31.6 1011.8 5.0 7.2 NW 1013.5 20.3 31.6 0.0
19-06-2021 16:29 5 52 31.8 1011.7 3.6 6.1 S 1013.4 20.8 31.8 0.0
19-06-2021 16:34 5 51 31.8 1011.8 6.1 9.7 SW 1013.5 20.4 31.8 0.0
19-06-2021 16:39 5 51 31.6 1012.0 7.2 9.7 W 1013.7 20.3 31.5 0.0
19-06-2021 16:44 5 53 31.6 1011.7 2.5 3.6 W 1013.4 20.9 31.6 0.0
19-06-2021 16:49 5 52 31.6 1011.7 2.5 3.6 W 1013.4 20.6 31.6 0.0
19-06-2021 16:54 5 52 31.9 1011.8 3.6 5.0 N 1013.5 20.9 31.9 0.0
19-06-2021 16:59 5 51 31.8 1011.9 5.0 9.7 W 1013.6 20.4 31.8 0.0
19-06-2021 17:04 5 52 31.9 1011.7 2.5 3.6 N 1013.4 20.9 31.9 0.0
19-06-2021 17:09 5 52 32.0 1011.6 2.5 6.1 NE 1013.3 20.9 32.0 0.0
19-06-2021 17:14 5 51 32.1 1011.9 3.6 5.0 E 1013.6 20.7 32.1 0.0
19-06-2021 17:19 5 52 32.0 1011.9 3.6 6.1 SW 1013.6 20.9 32.0 0.0
19-06-2021 17:24 5 51 31.7 1011.9 2.5 3.6 NE 1013.6 20.4 31.7 0.0
19-06-2021 17:29 5 51 31.9 1011.8 5.0 7.2 W 1013.5 20.5 31.9 0.0
19-06-2021 17:34 5 51 32.0 1011.8 3.6 5.0 NE 1013.5 20.6 32.0 0.0
19-06-2021 17:39 5 51 31.8 1011.7 1.1 2.5 N 1013.4 20.4 31.8 0.0
19-06-2021 17:44 5 50 31.7 1011.7 2.5 3.6 NE 1013.4 20.0 31.7 0.0
19-06-2021 17:49 5 51 31.6 1011.8 1.1 2.5 SE 1013.5 20.3 31.6 0.0
19-06-2021 17:54 5 50 31.3 1011.7 3.6 7.2 W 1013.4 19.7 31.3 0.0
19-06-2021 17:59 5 51 30.9 1011.8 5.0 8.6 NE 1013.5 19.6 30.9 0.0
19-06-2021 18:04 5 54 30.6 1011.5 1.1 2.5 W 1013.2 20.3 30.6 0.0
19-06-2021 18:09 5 52 30.6 1012.1 3.6 8.6 NW 1013.8 19.7 30.6 0.0
19-06-2021 18:14 5 52 30.4 1011.6 2.5 5.0 SE 1013.3 19.5 30.4 0.0
19-06-2021 18:19 5 52 30.7 1011.6 2.5 3.6 SWW 1013.3 19.8 30.7 0.0
19-06-2021 18:24 5 52 30.6 1011.8 5.0 7.2 NNW 1013.5 19.7 30.6 0.0
19-06-2021 18:29 5 52 30.5 1012.0 0.0 1.1 NW 1013.7 19.6 30.5 0.0
19-06-2021 18:34 5 52 30.2 1011.8 3.6 6.1 N 1013.5 19.3 30.2 0.0
19-06-2021 18:39 5 53 30.1 1012.0 6.1 9.7 E 1013.7 19.5 30.1 0.0
19-06-2021 18:44 5 53 30.1 1012.0 2.5 3.6 E 1013.7 19.5 30.1 0.0
19-06-2021 18:49 5 52 30.5 1012.0 5.0 7.2 W 1013.7 19.6 30.5 0.0
19-06-2021 18:54 5 52 30.4 1011.7 2.5 5.0 NE 1013.4 19.5 30.4 0.0
19-06-2021 18:59 5 52 30.0 1011.8 5.0 7.2 W 1013.5 19.1 30.0 0.0
19-06-2021 19:04 5 53 29.2 1011.7 6.1 9.7 NW 1013.4 18.7 29.2 0.0
19-06-2021 19:09 5 54 29.2 1011.9 2.5 6.1 NW 1013.6 19.0 29.2 0.0
19-06-2021 19:14 5 54 28.8 1011.7 2.5 5.0 NWW 1013.4 18.6 28.8 0.0
19-06-2021 19:19 5 54 28.7 1011.7 3.6 6.1 NNE 1013.4 18.5 28.7 0.0
19-06-2021 19:24 5 54 28.7 1012.0 5.0 8.6 N 1013.7 18.5 28.7 0.0
19-06-2021 19:29 5 54 28.5 1012.2 3.6 6.1 NE 1013.9 18.3 28.5 0.0
19-06-2021 19:34 5 55 28.2 1012.1 5.0 7.2 NW 1013.8 18.3 28.2 0.0
19-06-2021 19:39 5 56 28.1 1012.1 3.6 6.1 NE 1013.8 18.5 28.1 0.0
19-06-2021 19:44 5 55 27.8 1012.2 2.5 5.0 N 1013.9 18.0 27.8 0.0
19-06-2021 19:49 5 60 27.4 1012.3 1.1 3.6 NWW 1014.0 19.0 27.4 0.0
19-06-2021 19:54 5 60 27.3 1012.2 2.5 3.6 N 1013.9 18.9 27.3 0.0
19-06-2021 19:59 5 61 27.1 1012.4 3.6 6.1 NE 1014.1 19.0 27.1 0.0
19-06-2021 20:04 5 61 27.0 1012.4 2.5 3.6 SE 1014.1 18.9 27.0 0.0
19-06-2021 20:09 5 61 27.1 1012.5 1.1 2.5 N 1014.2 19.0 27.1 0.0
19-06-2021 20:14 5 61 27.2 1012.4 0.0 1.1 N 1014.1 19.1 27.2 0.0
19-06-2021 20:19 5 61 27.3 1012.4 2.5 5.0 NE 1014.1 19.2 27.3 0.0
19-06-2021 20:24 5 61 27.1 1012.2 1.1 2.5 E 1013.9 19.0 27.1 0.0
19-06-2021 20:29 5 61 26.6 1012.5 2.5 2.5 W 1014.2 18.5 26.6 0.0
19-06-2021 20:34 5 62 26.1 1012.3 1.1 3.6 W 1014.0 18.3 26.1 0.0
19-06-2021 20:39 5 63 25.6 1012.3 2.5 5.0 NE 1014.0 18.1 25.6 0.0
19-06-2021 20:44 5 64 24.9 1012.4 0.0 1.1 NE 1014.1 17.7 24.9 0.0
19-06-2021 20:49 5 65 24.6 1012.5 0.0 1.1 N 1014.2 17.6 24.6 0.0
19-06-2021 20:54 5 68 24.0 1012.7 0.0 1.1 W 1014.4 17.8 24.0 0.0
19-06-2021 20:59 5 69 23.7 1012.6 0.0 0.0 E 1014.3 17.7 23.7 0.0
19-06-2021 21:04 5 70 23.5 1013.0 3.6 6.1 N 1014.7 17.7 23.5 0.0
19-06-2021 21:09 5 70 23.5 1012.8 3.6 6.1 N 1014.5 17.7 23.5 0.0
19-06-2021 21:14 5 71 22.9 1012.9 1.1 2.5 NE 1014.6 17.4 22.9 0.0
19-06-2021 21:19 5 71 22.7 1012.9 0.0 1.1 NW 1014.6 17.2 22.7 0.0
19-06-2021 21:24 5 74 22.4 1013.0 0.0 1.1 W 1014.7 17.6 22.4 0.0
19-06-2021 21:29 5 75 22.1 1012.7 0.0 0.0 W 1014.4 17.5 22.1 0.0
19-06-2021 21:34 5 76 21.6 1012.8 1.1 2.5 W 1014.5 17.2 21.6 0.0
19-06-2021 21:39 5 77 21.3 1012.7 0.0 0.0 W 1014.4 17.1 21.3 0.0
19-06-2021 21:44 5 78 21.1 1012.9 0.0 0.0 W 1014.6 17.1 21.1 0.0
19-06-2021 21:49 5 78 20.9 1013.0 0.0 0.0 W 1014.7 16.9 20.9 0.0
19-06-2021 21:54 5 79 20.6 1012.7 0.0 0.0 W 1014.4 16.9 20.6 0.0
19-06-2021 21:59 5 80 20.4 1012.7 0.0 0.0 W 1014.4 16.9 20.4 0.0
19-06-2021 22:04 5 80 20.3 1012.6 0.0 0.0 W 1014.3 16.8 20.3 0.0
19-06-2021 22:09 5 81 19.8 1012.7 0.0 0.0 W 1014.4 16.5 19.8 0.0
19-06-2021 22:14 5 82 19.7 1012.6 0.0 0.0 W 1014.3 16.6 19.7 0.0
19-06-2021 22:19 5 83 19.6 1012.5 0.0 0.0 E 1014.2 16.7 19.6 0.0
19-06-2021 22:24 5 84 19.6 1012.7 0.0 0.0 E 1014.4 16.8 19.6 0.0
19-06-2021 22:29 5 85 19.6 1012.5 0.0 0.0 E 1014.2 17.0 19.6 0.0
19-06-2021 22:34 5 85 19.5 1012.4 0.0 0.0 E 1014.1 16.9 19.5 0.0
19-06-2021 22:39 5 85 19.3 1012.6 0.0 0.0 E 1014.3 16.7 19.3 0.0
19-06-2021 22:44 5 85 19.1 1012.7 0.0 0.0 E 1014.4 16.5 19.1 0.0
19-06-2021 22:49 5 86 19.0 1012.6 0.0 0.0 SW 1014.3 16.6 19.0 0.0
19-06-2021 22:54 5 86 18.8 1012.7 0.0 0.0 SW 1014.4 16.4 18.8 0.0
19-06-2021 22:59 5 87 18.8 1012.6 0.0 0.0 E 1014.3 16.6 18.8 0.0
19-06-2021 23:04 5 88 18.8 1012.7 0.0 0.0 E 1014.4 16.8 18.8 0.0
19-06-2021 23:09 5 89 18.7 1012.7 0.0 0.0 E 1014.4 16.9 18.7 0.0
19-06-2021 23:14 5 89 18.6 1012.6 0.0 0.0 E 1014.3 16.8 18.6 0.0
19-06-2021 23:19 5 89 18.5 1012.4 0.0 0.0 E 1014.1 16.7 18.5 0.0
19-06-2021 23:24 5 88 18.2 1012.4 0.0 1.1 SW 1014.1 16.2 18.2 0.0
19-06-2021 23:29 5 88 18.0 1012.3 0.0 0.0 SW 1014.0 16.0 18.0 0.0
19-06-2021 23:34 5 88 17.7 1012.4 0.0 0.0 SW 1014.1 15.7 17.7 0.0
19-06-2021 23:39 5 88 17.5 1012.3 0.0 0.0 SW 1014.0 15.5 17.5 0.0
19-06-2021 23:44 5 89 17.5 1012.0 0.0 0.0 SW 1013.7 15.7 17.5 0.0
19-06-2021 23:49 5 90 17.5 1012.0 0.0 0.0 SW 1013.7 15.9 17.5 0.0
19-06-2021 23:54 5 91 17.5 1012.0 0.0 0.0 SW 1013.7 16.0 17.5 0.0
19-06-2021 23:59 5 93 17.4 1012.2 0.0 0.0 SW 1013.9 16.3 17.4 0.0

 

Tagesdaten                                                                  Tabelle: 08 UHR

STATIONHÖHELUFTD.TEMP.T-MinT-MaxU%RR1RR12SSSDDFFFXWetter+WolkenBöen
UFS TW Ems 0 1011.0 16.3 14.9 17.6 --- ---- --- --- SW 18 --- --- ---
UFS Deutsche Bucht 0 1011.3 17.0 16.3 18.0 97 ---- --- --- S 18 --- --- ---
Helgoland 4 1011.3 17.4 16.7 20.0 94 0.0 6 --- SW 16 20 --- ---
List/Sylt 26 1010.9 20.8 18.4 23.1 92 0.0 9 0 S 14 21 --- ---
Schleswig 43 1011.0 22.5 19.0 25.3 80 0.0 0 --- SW 8 16 --- ---
Leuchtturm Kiel 5 1011.2 20.9 19.5 22.4 85 ---- --- --- S 13 21 --- ---
Kiel 27 1011.1 23.5 18.2 24.4 77 0.0 0 --- S 5 11 --- ---
Fehmarn 3 1011.3 24.1 18.9 24.2 76 0.0 0 --- S 7 16 --- ---
Arkona 42 1012.5 24.2 20.5 24.2 62 0.0 0 --- S 23 31 wolkenlos ---
Norderney 11 1011.7 19.9 16.5 20.1 90 0.0 28 --- SW 18 30 --- ---
Leuchtt. Alte Weser 32 1011.5 20.5 17.4 23.1 88 ---- --- --- SW 32 --- --- ---
Cuxhaven 5 1011.9 23.3 19.6 24.5 72 0.0 0 --- SW 15 29 --- ---
Hamburg-Flh. 11 1012.0 25.5 20.1 28.5 74 0.0 0 0 SW 13 20 heiter ---
Schwerin 59 1011.9 25.0 22.2 30.5 57 0.0 0 --- S 8 16 --- ---
Rostock 4 1011.9 25.3 22.6 33.0 51 0.0 0 --- S 7 21 wolkenlos ---
Greifswald 2 1012.7 26.1 21.3 29.4 54 0.0 0 --- S 7 19 wolkenlos ---
Emden 0 1012.2 20.6 17.5 21.1 87 0.0 24 --- SW 11 24 --- ---
Bremen-Flh. 5 1013.0 24.0 17.5 29.9 68 0.0 0 0 SW 21 31 heiter ---
Lüchow 17 1012.5 24.6 17.3 33.1 66 0.0 0 --- S 5 10 --- ---
Marnitz 81 1012.3 25.8 21.8 31.7 50 0.0 0 --- SW 7 19 wolkenlos ---
Waren 70 1012.5 24.6 22.3 31.3 60 0.0 0 --- S 8 13 wolkenlos ---
Neuruppin 38 1013.0 25.1 16.4 32.2 56 0.0 0 --- -- --- --- --- ---
Angermünde 56 1013.7 24.4 19.8 30.5 64 0.0 0 0 S 7 16 wolkenlos ---
Münster/Osnabr.-Flh. 48 1014.2 22.6 19.8 30.2 69 0.0 0 0 SW 21 31 heiter ---
Hannover-Flh. 59 1013.6 24.4 20.7 28.1 68 0.0 0 0 W 14 22 heiter ---
Magdeburg 76 1013.0 25.6 19.5 31.7 58 0.0 0 --- W 2 10 --- ---
Potsdam 81 1013.1 23.5 20.0 31.3 59 0.0 0 --- SO 7 19 wolkenlos ---
Berlin-Brandenburg-Flgh. 46 1013.5 25.0 19.3 31.9 54 0.0 0 0 SO 9 14 heiter ---
Berlin-Tempelhof 48 1013.4 25.0 21.1 32.4 54 0.0 0 --- SO 10 54 --- Windböen
Berlin-Dahlem 51 1013.2 23.3 18.0 31.6 --- ---- 0 0 SO 7 --- heiter ---
Lindenberg 91 1013.7 24.5 21.5 31.4 54 0.0 0 --- SO 6 18 wolkenlos ---
Düsseldorf-Flh. 45 1015.0 21.3 18.5 31.5 71 0.0 0 0 SW 23 31 heiter ---
Essen 150 1015.0 20.7 19.8 29.8 74 0.0 0 --- SW 15 31 --- ---
Kahler Asten 839 ------ 18.6 17.2 24.1 76 0.0 3 --- SW 20 29 wolkenlos ---
Bad Lippspringe 157 1014.6 23.6 19.7 27.4 66 0.0 0 --- W 10 18 wolkenlos ---
Fritzlar 174 1015.0 21.0 17.7 27.9 84 ---- 0 0 - 4 --- heiter ---
Brocken 1142 ------ 19.6 19.2 22.7 66 0.0 0 --- W 27 33 --- ---
Leipzig-Flh. 142 1013.2 23.5 19.3 30.0 64 0.0 0 0 SW 15 22 heiter ---
Dresden-Flh. 227 1013.6 24.7 22.2 29.8 56 0.0 0 0 S 12 17 wolkenlos ---
Cottbus 69 1013.6 26.2 19.0 31.4 50 0.0 0 --- SO 6 13 wolkenlos ---
Görlitz 238 1014.5 24.3 18.9 28.6 55 0.0 0 --- S 12 19 wolkenlos ---
Aachen 231 1015.3 19.4 17.6 28.3 77 0.0 0 --- SW 19 26 --- ---
Nürburg 485 1015.3 19.4 17.4 27.2 71 0.0 0 --- SW 9 18 --- ---
Köln/Bonn-Flh. 92 1015.1 22.6 18.3 31.3 66 0.0 0 0 SW 6 11 heiter ---
Gießen/Wettenberg 203 ------ --- --- --- --- ---- --- --- -- --- --- --- ---
Wasserkuppe 921 ------ 20.0 18.4 25.5 73 0.0 0 --- W 12 17 --- ---
Meiningen 450 1015.3 18.5 17.3 30.1 90 ---- --- --- S 9 14 Regen ---
Erfurt 316 1013.9 23.2 17.9 29.2 69 0.0 0 0 SW 15 22 stark bewölkt ---
Gera 311 1013.9 22.5 18.2 29.1 71 0.0 0 --- S 10 26 --- ---
Fichtelberg 1213 ------ 20.9 18.2 21.1 57 0.0 0 0 SW 17 22 wolkenlos ---
Trier 265 1016.1 19.5 17.1 28.8 78 0.0 0 --- SW 6 9 --- ---
Hahn-Flh. 497 1015.6 20.4 17.9 26.7 70 0.0 0 --- -- --- --- --- ---
Frankfurt/M-Flh. 112 1015.6 23.8 19.9 30.5 68 0.0 0 0 S 7 13 heiter ---
OF-Wetterpark 119 1015.4 23.9 21.6 29.4 67 0.0 0 --- SW 6 15 wolkenlos ---
Würzburg 268 1016.3 21.2 20.4 29.5 78 0.0 0 --- W 5 8 Regen ---
Bamberg 239 1015.5 19.9 16.2 28.9 89 0.0 0 --- SW 4 10 Regen ---
Hof 567 1014.4 22.3 17.8 29.4 66 0.0 0 --- SO 4 12 --- ---
Weiden 438 1015.6 20.4 16.8 28.1 72 0.0 0 --- NO 2 7 --- ---
Saarbrücken-Flh. 320 1015.9 21.1 17.0 26.8 72 0.0 0 0 SW 3 5 heiter ---
Karlsruhe-Rheinst. 116 1016.2 23.2 18.6 31.0 77 0.0 15 --- SW 8 12 wolkenlos ---
Mannheim 96 1015.5 24.1 19.8 32.1 70 0.0 0 --- S 6 11 wolkenlos ---
Stuttgart-Flh. 371 1016.3 21.9 18.8 28.8 75 0.0 --- --- SW 3 5 heiter ---
Öhringen 276 1016.2 21.6 20.6 30.7 75 0.0 0 --- W 2 6 --- ---
Nürnberg-Flh. 314 1015.6 20.4 17.3 31.8 80 0.0 0 0 O 6 11 bewölkt ---
Regensburg 366 1015.3 21.3 16.6 29.9 76 0.0 0 --- N 3 9 wolkenlos ---
Straubing 351 1015.3 22.6 15.4 30.5 70 0.0 0 --- N 2 10 --- ---
Großer Arber 1436 ------ 20.6 17.1 21.0 56 0.0 0 --- N 13 16 --- ---
Lahr 155 1016.0 24.0 19.5 30.6 72 0.0 0 --- - 0 7 --- ---
Freudenstadt 797 ------ 17.8 15.5 25.9 96 0.0 4 --- SW 11 18 Dunst oder flacher Nebel ---
Stötten 734 1016.0 20.2 17.8 27.0 73 0.0 0 --- W 12 21 --- ---
Augsburg 462 1016.1 21.4 15.6 27.8 77 0.0 0 --- SW 4 8 --- ---
München-Flh. 444 1015.6 21.8 14.6 28.9 73 0.0 0 0 W 14 22 bewölkt ---
Fürstenzell 476 1015.4 21.6 18.6 29.0 73 0.0 0 --- S 4 9 --- ---
Feldberg/Schw. 1486 ------ 16.3 15.9 18.1 83 0.0 0 0 S 17 20 --- ---
Konstanz 443 1016.5 21.9 18.9 25.8 75 0.0 0 --- NW 3 7 --- ---
Kempten 705 1016.4 21.4 18.0 28.4 76 0.0 0 --- SO 4 9 --- ---
Oberstdorf 806 ------ 20.0 15.8 27.5 75 0.0 0 --- S 9 14 --- ---
Zugspitze 2960 ------ 9.5 7.0 9.7 71 ---- --- 250 O 9 15 --- ---
Hohenpeißenberg 977 ------ 19.8 19.0 24.8 74 0.0 0 --- W 12 20 --- ---

                                                                                                     Tabelle: 20 UHR 

STATIONHÖHELUFTD.TEMP.T-MinT-MaxU%RR1RR12SSSDDFFFXWetter+WolkenBöen
UFS TW Ems 0 1014.5 13.8 13.4 16.6 --- ---- --- --- N 22 --- --- ---
UFS Deutsche Bucht 26 1014.3 14.8 14.7 17.4 90 ---- --- --- N 25 --- --- ---
Helgoland 4 1014.2 16.1 16.0 19.5 89 0.0 0 --- N 21 32 --- ---
List/Sylt 26 1014.2 14.9 14.9 21.3 86 0.0 0 0 NW 19 27 --- ---
Schleswig 43 1013.8 19.7 19.7 27.5 76 0.0 0 --- W 10 27 --- ---
Leuchtturm Kiel 5 1013.1 22.7 20.7 25.8 71 ---- --- --- NW 23 26 --- ---
Kiel 27 1012.9 23.9 23.6 27.6 68 0.0 0 --- W 14 21 --- ---
Fehmarn 3 1013.4 22.0 22.0 27.0 78 0.0 0 --- N 6 18 --- ---
Arkona 42 1013.2 22.9 22.5 30.5 77 0.0 0 --- N 9 23 --- ---
Norderney 11 1014.2 15.4 15.4 22.3 91 0.0 0 --- N 29 35 --- ---
Leuchtt. Alte Weser 32 1013.9 15.7 15.6 20.8 97 ---- --- --- NW 29 --- --- ---
Cuxhaven 5 1014.3 18.0 18.0 25.0 82 0.0 0 --- NW 21 35 --- ---
Hamburg-Flh 11 1012.7 26.6 24.8 30.1 60 0.0 0 0 NW 14 27 heiter ---
Schwerin 59 1012.7 26.5 25.0 31.2 59 0.0 0 --- N 13 24 wolkenlos ---
Rostock 4 1013.5 22.4 22.2 29.9 75 0.0 0 --- N 12 18 wolkenlos ---
Greifswald 2 1012.6 25.4 25.1 34.0 73 0.0 0 --- NW 10 21 --- ---
Emden 0 1014.1 16.9 16.9 24.0 86 0.0 0 --- NW 18 26 --- ---
Bremen-Flh. 5 1012.7 25.2 23.5 29.2 61 0.0 0 0 N 22 30 heiter ---
Lüchow 17 1012.1 30.1 24.5 32.1 39 0.0 0 --- NW 6 15 --- ---
Marnitz 81 1012.4 28.5 25.6 34.0 56 0.0 0 --- NO 14 26 --- ---
Waren 70 1012.2 26.9 24.3 34.0 66 0.0 0 --- NO 9 22 --- ---
Neuruppin 38 1011.6 29.9 25.0 34.8 52 0.0 0 --- -- --- --- --- ---
Angermünde 56 1011.6 29.2 24.3 35.0 51 0.0 0 0 NO 4 19 --- ---
Münster/Osnabr.-Flh. 48 1011.8 28.2 22.3 30.1 45 0.0 0 0 N 11 17 heiter ---
Hannover-Flh. 59 1012.2 27.6 24.4 30.2 49 0.0 0 0 N 7 13 heiter ---
Magdeburg 76 1011.7 28.9 25.4 32.4 52 0.0 0 --- N 4 13 wolkenlos ---
Potsdam 81 1011.6 26.0 23.4 36.0 81 1.6 2 --- N 10 23 Regen ---
Berlin-Brandenburg-Flgh. 46 1011.5 29.2 25.1 36.5 43 0.0 0 0 N 16 24 Gewitter ---
Berlin-Tempelhof 48 1011.5 30.2 25.0 36.6 41 0.0 0 --- -- --- 20 --- ---
Berlin-Dahlem 51 1011.4 30.8 23.3 35.2 --- ---- 0 0 O 14 --- starkes Gewitter ---
Lindenberg 91 1011.4 30.3 24.5 35.9 38 0.0 0 --- O 7 15 --- ---
Düsseldorf-Flh. 45 1010.5 26.8 20.9 29.4 60 0.0 0 0 N 16 25 heiter ---
Essen 150 1010.6 26.8 20.5 29.0 53 0.0 0 --- N 13 21 --- ---
Kahler Asten 839 ------ 24.0 18.4 26.2 50 0.0 0 --- N 7 14 --- ---
Bad Lippspringe 157 1011.6 28.1 23.4 30.9 44 0.0 0 --- NO 14 22 wolkenlos ---
Fritzlar 174 1010.7 30.3 21.3 31.6 37 ---- 0 0 - 4 --- heiter ---
Brocken 1142 ------ 20.0 18.9 26.1 69 0.0 0 --- O 9 22 --- ---
Leipzig-Flh. 142 1011.4 30.6 23.7 33.3 43 0.0 0 0 W 9 15 heiter ---
Dresden-Flh. 227 1011.7 29.4 24.7 33.6 47 0.0 0 0 NO 9 22 Gewitter ---
Cottbus 69 1010.9 30.5 25.8 36.3 46 0.0 0 --- W 4 14 --- ---
Görlitz 238 1011.6 28.7 24.5 33.8 48 0.0 0 --- S 9 11 --- ---
Aachen 231 1009.9 25.0 19.4 27.1 61 0.0 0 --- NO 12 22 --- ---
Nürburg 485 1009.1 25.8 19.4 28.7 56 0.0 0 --- O 9 14 --- ---
Köln/Bonn-Flh. 92 1009.6 29.7 22.5 31.5 47 0.0 0 0 NO 12 21 heiter ---
Gießen/Wettenberg 203 ------ --- --- --- --- ---- --- --- -- --- --- --- ---
Wasserkuppe 921 ------ 25.5 19.1 27.4 53 0.0 0 --- SW 4 20 --- ---
Meiningen 450 1011.1 28.5 18.3 30.1 46 ---- --- --- SO 6 14 --- ---
Erfurt 316 1011.4 28.1 22.2 30.4 58 0.0 0 0 NO 4 16 heiter ---
Gera 311 1011.6 24.7 22.6 31.3 78 0.0 0 --- SW 7 24 Regen ---
Fichtelberg 1213 ------ 20.5 17.9 24.5 72 0.0 4 0 SO 15 17 Regen ---
Trier 265 1008.2 28.7 19.5 31.7 52 0.0 0 --- NO 12 19 --- ---
Hahn-Flh. 497 1008.9 26.4 20.3 28.3 55 0.0 0 --- -- --- --- --- ---
Frankfurt/M-Flh. 112 1009.3 31.6 23.7 33.8 39 0.0 0 0 O 6 12 heiter ---
OF-Wetterpark 119 1009.6 30.2 24.1 33.4 47 0.0 0 --- NO 7 13 --- ---
Würzburg 268 1010.9 28.4 20.9 32.3 52 0.0 0 --- O 13 15 --- ---
Bamberg 239 1011.1 27.7 19.9 31.6 61 0.0 0 --- NO 6 9 --- ---
Hof 567 1011.3 26.7 22.0 30.9 48 0.0 0 --- S 3 16 --- ---
Weiden 438 1012.5 20.9 20.1 32.5 81 3.6 4 --- O 12 42 leichter Regen ---
Saarbrücken-Flh. 320 1008.5 27.8 21.1 31.5 56 0.0 0 0 O 12 22 heiter ---
Karlsruhe-Rheinst. 116 1008.6 29.8 23.2 32.1 53 0.0 0 --- NO 14 28 wolkenlos ---
Mannheim 96 1008.8 31.3 24.2 33.6 40 0.0 0 --- O 8 15 --- ---
Stuttgart-Flh. 371 1009.0 29.4 22.0 31.4 48 0.0 0 --- O 7 21 heiter ---
Öhringen 276 1009.3 29.5 21.6 32.7 52 0.0 0 --- NO 12 18 --- ---
Nürnberg-Flh. 314 1010.5 29.7 20.3 32.4 48 0.0 0 0 N 12 18 heiter ---
Regensburg 366 1010.5 30.4 21.3 33.9 38 0.0 0 --- O 4 13 wolkenlos ---
Straubing 351 1010.6 29.3 22.3 32.8 50 0.0 0 --- O 8 11 --- ---
Großer Arber 1436 ------ 20.9 18.2 24.7 58 0.0 6 --- SW 6 14 Niederschlag ---
Lahr 155 1008.2 29.5 24.0 32.6 60 0.0 0 --- NO 9 17 --- ---
Freudenstadt 797 ------ 25.9 17.9 27.7 58 0.0 0 --- O 11 24 --- ---
Stötten 734 1009.6 25.4 19.4 28.1 58 0.0 0 --- O 13 19 --- ---
Augsburg 462 1010.0 27.2 21.4 30.4 51 0.0 0 --- O 10 17 --- ---
München-Flh. 444 1010.1 28.0 21.8 30.8 48 0.0 0 0 O 10 18 heiter ---
Fürstenzell 476 1010.8 28.7 21.4 32.2 45 0.0 0 --- O 5 9 --- ---
Feldberg/Schw. 1486 ------ 19.5 16.3 22.1 72 0.0 0 0 SO 19 26 --- ---
Konstanz 443 1009.4 26.2 21.9 31.4 75 0.0 0 --- NO 4 12 --- ---
Kempten 705 1009.0 27.6 21.4 29.9 48 0.0 0 --- O 7 13 --- ---
Oberstdorf 806 ------ 27.9 20.0 30.2 52 0.0 0 --- NW 6 13 --- ---
Zugspitze 2960 ------ 12.3 9.3 14.7 69 ---- --- --- W 2 7 --- ---
Hohenpeißenberg 977 ------ 24.6 19.8 26.5 51 0.0 0 --- NO 12 23 wolkenlos ---

   

  • Wetterzustand
  • Windrichtung und -geschwindigkeit
  • Luftdruck
  • relative Luftfeuchtigkeit
  • Sichtweite
  • Gesamtbedeckungsgrad
  • Niederschlag
  • Sonnenscheindauer

 Höhe:     m über NN
Luftd.:   auf Meereshöhe reduzierter Luftdruck in hPa
TEMP.:   Lufttemperatur in Grad Celsius
T-MIN:   Minimumtemperatur der Luft in 2m Höhe in Grad Celsius, von 18 UTC Vortag bis 06 UTC heute
T-MAX:  Maximumtemperatur der Luft in 2m Höhe in Grad Celsius, von 18 UTC Vortag bis 06 UTC heute
RR1:     Niederschlagsmenge, einstündig, mm ist gleich Liter pro
RR12:   Niederschlagsmenge, 12 stündig, 18 UTC Vortag bis 06 UTC heute in mm ist gleich Liter pro
SSS:     Gesamtschneehöhe
DD:      Windrichtung
FF:       Windgeschwindigkeit letztes 10-Minutenmittel in km/h
FX:       höchste Windspitze während der letzten Stunde in km/h
---:      Wert nicht vorhanden

 

2009-2021

Unwetterwarnungen

 

  Radarbild           

aktueller Radarfilm Deutschland

  Europa-Meteoalarm    

     

Deutschlandkarte mit dem Tageswert des Waldbrand-Gefahrenindex WBI, heute